sensor_id;sensor_type;location;lat;lon;timestamp;P1;durP1;ratioP1;P2;durP2;ratioP2
76094;SDS011;64821;13.710;100.604;2024-03-23T00:54:02;11.43;;;7.68;;
76094;SDS011;64821;13.710;100.604;2024-03-23T00:55:05;13.45;;;8.18;;
76094;SDS011;64821;13.710;100.604;2024-03-23T00:56:08;13.55;;;9.00;;
76094;SDS011;64821;13.710;100.604;2024-03-23T00:57:10;12.35;;;8.23;;
76094;SDS011;64821;13.710;100.604;2024-03-23T00:58:12;12.73;;;8.40;;
76094;SDS011;64821;13.710;100.604;2024-03-23T00:59:15;13.40;;;8.38;;
76094;SDS011;64821;13.710;100.604;2024-03-23T01:00:18;11.25;;;8.05;;
76094;SDS011;64821;13.710;100.604;2024-03-23T01:01:20;12.48;;;8.45;;
76094;SDS011;64821;13.710;100.604;2024-03-23T01:02:23;13.60;;;8.55;;
76094;SDS011;64821;13.710;100.604;2024-03-23T01:03:25;12.23;;;8.00;;
76094;SDS011;64821;13.710;100.604;2024-03-23T01:04:28;13.48;;;8.13;;
76094;SDS011;64821;13.710;100.604;2024-03-23T01:05:30;13.13;;;8.10;;
76094;SDS011;64821;13.710;100.604;2024-03-23T01:06:32;13.10;;;8.43;;
76094;SDS011;64821;13.710;100.604;2024-03-23T01:07:35;12.75;;;8.27;;
76094;SDS011;64821;13.710;100.604;2024-03-23T01:08:39;12.23;;;8.30;;
76094;SDS011;64821;13.710;100.604;2024-03-23T01:09:41;11.35;;;7.65;;
76094;SDS011;64821;13.710;100.604;2024-03-23T01:10:53;12.30;;;8.23;;
76094;SDS011;64821;13.710;100.604;2024-03-23T01:11:56;11.43;;;8.32;;
76094;SDS011;64821;13.710;100.604;2024-03-23T01:12:59;12.55;;;8.63;;
76094;SDS011;64821;13.710;100.604;2024-03-23T01:14:01;11.70;;;8.00;;
76094;SDS011;64821;13.710;100.604;2024-03-23T01:15:07;12.13;;;8.15;;
76094;SDS011;64821;13.710;100.604;2024-03-23T01:16:10;11.75;;;8.27;;
76094;SDS011;64821;13.710;100.604;2024-03-23T01:17:13;11.90;;;8.32;;
76094;SDS011;64821;13.710;100.604;2024-03-23T01:18:15;11.18;;;7.72;;
76094;SDS011;64821;13.710;100.604;2024-03-23T01:19:17;11.93;;;8.27;;
76094;SDS011;64821;13.710;100.604;2024-03-23T01:20:20;13.25;;;8.45;;
76094;SDS011;64821;13.710;100.604;2024-03-23T01:21:22;11.10;;;7.63;;
76094;SDS011;64821;13.710;100.604;2024-03-23T01:22:25;11.75;;;8.35;;
76094;SDS011;64821;13.710;100.604;2024-03-23T01:23:27;11.30;;;7.85;;
76094;SDS011;64821;13.710;100.604;2024-03-23T01:24:31;12.50;;;8.63;;
76094;SDS011;64821;13.710;100.604;2024-03-23T01:25:34;11.82;;;8.65;;
76094;SDS011;64821;13.710;100.604;2024-03-23T01:26:36;11.98;;;8.30;;
76094;SDS011;64821;13.710;100.604;2024-03-23T01:27:39;13.15;;;7.90;;
76094;SDS011;64821;13.710;100.604;2024-03-23T01:28:41;11.45;;;8.23;;
76094;SDS011;64821;13.710;100.604;2024-03-23T01:29:44;10.63;;;7.40;;
76094;SDS011;64821;13.710;100.604;2024-03-23T01:30:46;12.00;;;8.07;;
76094;SDS011;64821;13.710;100.604;2024-03-23T01:31:49;12.20;;;8.57;;
76094;SDS011;64821;13.710;100.604;2024-03-23T01:32:51;11.60;;;7.95;;
76094;SDS011;64821;13.710;100.604;2024-03-23T01:33:54;11.85;;;8.05;;
76094;SDS011;64821;13.710;100.604;2024-03-23T01:34:56;11.17;;;7.70;;
76094;SDS011;64821;13.710;100.604;2024-03-23T01:35:59;11.23;;;8.02;;
76094;SDS011;64821;13.710;100.604;2024-03-23T01:37:01;12.40;;;8.20;;
76094;SDS011;64821;13.710;100.604;2024-03-23T01:38:04;12.63;;;8.30;;
76094;SDS011;64821;13.710;100.604;2024-03-23T01:39:06;11.93;;;8.40;;
76094;SDS011;64821;13.710;100.604;2024-03-23T01:40:11;11.33;;;8.17;;
76094;SDS011;64821;13.710;100.604;2024-03-23T01:41:14;13.38;;;8.63;;
76094;SDS011;64821;13.710;100.604;2024-03-23T01:42:16;13.27;;;8.38;;
76094;SDS011;64821;13.710;100.604;2024-03-23T01:43:19;13.05;;;8.90;;
76094;SDS011;64821;13.710;100.604;2024-03-23T01:44:21;11.45;;;8.25;;
76094;SDS011;64821;13.710;100.604;2024-03-23T01:45:24;10.87;;;7.97;;
76094;SDS011;64821;13.710;100.604;2024-03-23T01:46:26;11.00;;;8.02;;
76094;SDS011;64821;13.710;100.604;2024-03-23T01:47:29;13.07;;;8.77;;
76094;SDS011;64821;13.710;100.604;2024-03-23T01:48:31;13.18;;;8.48;;
76094;SDS011;64821;13.710;100.604;2024-03-23T01:49:34;12.00;;;9.15;;
76094;SDS011;64821;13.710;100.604;2024-03-23T01:50:37;13.33;;;8.60;;
76094;SDS011;64821;13.710;100.604;2024-03-23T01:51:39;14.02;;;8.85;;
76094;SDS011;64821;13.710;100.604;2024-03-23T01:52:42;13.95;;;9.60;;
76094;SDS011;64821;13.710;100.604;2024-03-23T01:53:45;14.05;;;9.93;;
76094;SDS011;64821;13.710;100.604;2024-03-23T01:54:47;11.80;;;9.27;;
76094;SDS011;64821;13.710;100.604;2024-03-23T01:55:52;13.37;;;9.37;;
76094;SDS011;64821;13.710;100.604;2024-03-23T01:56:55;11.70;;;9.27;;
76094;SDS011;64821;13.710;100.604;2024-03-23T01:57:58;12.60;;;8.95;;
76094;SDS011;64821;13.710;100.604;2024-03-23T01:59:00;13.77;;;9.65;;
76094;SDS011;64821;13.710;100.604;2024-03-23T02:00:03;13.07;;;9.60;;
76094;SDS011;64821;13.710;100.604;2024-03-23T02:01:07;13.40;;;10.00;;
76094;SDS011;64821;13.710;100.604;2024-03-23T02:02:09;13.70;;;9.55;;
76094;SDS011;64821;13.710;100.604;2024-03-23T02:04:29;13.98;;;9.50;;
76094;SDS011;64821;13.710;100.604;2024-03-23T02:05:31;13.65;;;10.00;;
76094;SDS011;64821;13.710;100.604;2024-03-23T02:06:34;12.10;;;9.30;;
76094;SDS011;64821;13.710;100.604;2024-03-23T02:07:37;12.88;;;9.93;;
76094;SDS011;64821;13.710;100.604;2024-03-23T02:08:40;12.15;;;9.75;;
76094;SDS011;64821;13.710;100.604;2024-03-23T02:09:43;13.32;;;9.43;;
76094;SDS011;64821;13.710;100.604;2024-03-23T02:10:46;14.63;;;10.75;;
76094;SDS011;64821;13.710;100.604;2024-03-23T02:11:50;13.70;;;10.37;;
76094;SDS011;64821;13.710;100.604;2024-03-23T02:12:53;12.68;;;10.00;;
76094;SDS011;64821;13.710;100.604;2024-03-23T02:13:55;13.63;;;10.90;;
76094;SDS011;64821;13.710;100.604;2024-03-23T02:14:58;13.95;;;10.45;;
76094;SDS011;64821;13.710;100.604;2024-03-23T02:16:00;13.20;;;10.02;;
76094;SDS011;64821;13.710;100.604;2024-03-23T02:17:03;13.63;;;10.37;;
76094;SDS011;64821;13.710;100.604;2024-03-23T02:18:06;15.50;;;10.43;;
76094;SDS011;64821;13.710;100.604;2024-03-23T02:19:09;13.93;;;10.25;;
76094;SDS011;64821;13.710;100.604;2024-03-23T02:20:11;14.20;;;10.07;;
76094;SDS011;64821;13.710;100.604;2024-03-23T02:21:15;13.25;;;9.93;;
76094;SDS011;64821;13.710;100.604;2024-03-23T02:22:17;13.87;;;10.60;;
76094;SDS011;64821;13.710;100.604;2024-03-23T02:23:21;13.75;;;9.70;;
76094;SDS011;64821;13.710;100.604;2024-03-23T02:24:24;14.07;;;10.70;;
76094;SDS011;64821;13.710;100.604;2024-03-23T02:25:26;13.20;;;10.13;;
76094;SDS011;64821;13.710;100.604;2024-03-23T02:26:29;13.73;;;10.43;;
76094;SDS011;64821;13.710;100.604;2024-03-23T02:27:32;15.50;;;10.83;;
76094;SDS011;64821;13.710;100.604;2024-03-23T02:28:35;14.60;;;10.82;;
76094;SDS011;64821;13.710;100.604;2024-03-23T02:29:38;15.77;;;11.38;;
76094;SDS011;64821;13.710;100.604;2024-03-23T02:30:40;15.45;;;10.63;;
76094;SDS011;64821;13.710;100.604;2024-03-23T02:31:43;15.02;;;10.85;;
76094;SDS011;64821;13.710;100.604;2024-03-23T02:32:45;13.67;;;11.57;;
76094;SDS011;64821;13.710;100.604;2024-03-23T02:33:48;14.60;;;10.98;;
76094;SDS011;64821;13.710;100.604;2024-03-23T02:34:50;12.73;;;10.05;;
76094;SDS011;64821;13.710;100.604;2024-03-23T02:35:55;13.43;;;10.57;;
76094;SDS011;64821;13.710;100.604;2024-03-23T02:36:58;14.95;;;11.23;;
76094;SDS011;64821;13.710;100.604;2024-03-23T02:38:00;13.83;;;10.93;;
76094;SDS011;64821;13.710;100.604;2024-03-23T02:39:05;14.77;;;11.00;;
76094;SDS011;64821;13.710;100.604;2024-03-23T02:40:07;13.70;;;10.18;;
76094;SDS011;64821;13.710;100.604;2024-03-23T02:41:10;14.55;;;10.90;;
76094;SDS011;64821;13.710;100.604;2024-03-23T02:42:12;14.15;;;10.70;;
76094;SDS011;64821;13.710;100.604;2024-03-23T02:43:15;14.37;;;10.57;;
76094;SDS011;64821;13.710;100.604;2024-03-23T02:44:17;14.30;;;11.13;;
76094;SDS011;64821;13.710;100.604;2024-03-23T02:45:20;13.82;;;11.00;;
76094;SDS011;64821;13.710;100.604;2024-03-23T02:46:22;14.80;;;9.90;;
76094;SDS011;64821;13.710;100.604;2024-03-23T02:47:25;14.88;;;10.68;;
76094;SDS011;64821;13.710;100.604;2024-03-23T02:48:27;14.83;;;11.10;;
76094;SDS011;64821;13.710;100.604;2024-03-23T02:49:30;13.23;;;10.52;;
76094;SDS011;64821;13.710;100.604;2024-03-23T02:50:32;13.60;;;10.93;;
76094;SDS011;64821;13.710;100.604;2024-03-23T02:51:35;13.50;;;10.27;;
76094;SDS011;64821;13.710;100.604;2024-03-23T02:52:37;15.75;;;11.02;;
76094;SDS011;64821;13.710;100.604;2024-03-23T02:53:40;12.67;;;10.17;;
76094;SDS011;64821;13.710;100.604;2024-03-23T02:54:44;12.75;;;10.20;;
76094;SDS011;64821;13.710;100.604;2024-03-23T02:55:47;15.63;;;11.07;;
76094;SDS011;64821;13.710;100.604;2024-03-23T02:56:49;13.30;;;10.27;;
76094;SDS011;64821;13.710;100.604;2024-03-23T02:57:52;13.93;;;11.13;;
76094;SDS011;64821;13.710;100.604;2024-03-23T02:58:54;13.60;;;10.80;;
76094;SDS011;64821;13.710;100.604;2024-03-23T02:59:57;12.85;;;10.43;;
76094;SDS011;64821;13.710;100.604;2024-03-23T03:00:59;13.95;;;11.80;;
76094;SDS011;64821;13.710;100.604;2024-03-23T03:02:02;14.15;;;10.52;;
76094;SDS011;64821;13.710;100.604;2024-03-23T03:03:04;15.52;;;11.98;;
76094;SDS011;64821;13.710;100.604;2024-03-23T03:04:07;14.00;;;11.27;;
76094;SDS011;64821;13.710;100.604;2024-03-23T03:05:09;14.27;;;11.13;;
76094;SDS011;64821;13.710;100.604;2024-03-23T03:06:12;14.18;;;11.93;;
76094;SDS011;64821;13.710;100.604;2024-03-23T03:07:24;14.20;;;10.90;;
76094;SDS011;64821;13.710;100.604;2024-03-23T03:08:27;14.52;;;11.18;;
76094;SDS011;64821;13.710;100.604;2024-03-23T03:09:29;14.47;;;10.30;;
76094;SDS011;64821;13.710;100.604;2024-03-23T03:10:34;13.85;;;10.75;;
76094;SDS011;64821;13.710;100.604;2024-03-23T03:11:36;13.05;;;10.60;;
76094;SDS011;64821;13.710;100.604;2024-03-23T03:12:39;13.85;;;10.68;;
76094;SDS011;64821;13.710;100.604;2024-03-23T03:13:41;13.23;;;10.60;;
76094;SDS011;64821;13.710;100.604;2024-03-23T03:14:43;13.70;;;10.50;;
76094;SDS011;64821;13.710;100.604;2024-03-23T03:15:46;14.05;;;10.75;;
76094;SDS011;64821;13.710;100.604;2024-03-23T03:16:49;13.30;;;10.48;;
76094;SDS011;64821;13.710;100.604;2024-03-23T03:17:51;13.43;;;10.60;;
76094;SDS011;64821;13.710;100.604;2024-03-23T03:18:53;13.73;;;10.43;;
76094;SDS011;64821;13.710;100.604;2024-03-23T03:19:56;14.73;;;11.20;;
76094;SDS011;64821;13.710;100.604;2024-03-23T03:20:58;12.50;;;10.23;;
76094;SDS011;64821;13.710;100.604;2024-03-23T03:22:08;13.10;;;10.35;;
76094;SDS011;64821;13.710;100.604;2024-03-23T20:02:47;13.38;;;8.70;;
76094;SDS011;64821;13.710;100.604;2024-03-23T20:03:50;15.23;;;8.23;;
76094;SDS011;64821;13.710;100.604;2024-03-23T20:04:52;11.38;;;7.35;;
76094;SDS011;64821;13.710;100.604;2024-03-23T20:05:58;11.57;;;7.47;;
76094;SDS011;64821;13.710;100.604;2024-03-23T20:07:01;12.63;;;8.07;;
76094;SDS011;64821;13.710;100.604;2024-03-23T20:08:04;14.05;;;7.63;;
76094;SDS011;64821;13.710;100.604;2024-03-23T20:09:07;13.00;;;7.97;;
76094;SDS011;64821;13.710;100.604;2024-03-23T20:10:09;13.48;;;7.82;;
76094;SDS011;64821;13.710;100.604;2024-03-23T20:11:12;14.13;;;8.68;;
76094;SDS011;64821;13.710;100.604;2024-03-23T20:12:14;15.80;;;8.53;;
76094;SDS011;64821;13.710;100.604;2024-03-23T20:13:17;14.27;;;9.13;;
76094;SDS011;64821;13.710;100.604;2024-03-23T20:14:19;14.35;;;9.18;;
76094;SDS011;64821;13.710;100.604;2024-03-23T20:15:22;13.77;;;8.40;;
76094;SDS011;64821;13.710;100.604;2024-03-23T20:16:24;14.68;;;8.60;;
76094;SDS011;64821;13.710;100.604;2024-03-23T20:17:28;12.73;;;8.70;;
76094;SDS011;64821;13.710;100.604;2024-03-23T20:18:31;11.95;;;8.65;;
76094;SDS011;64821;13.710;100.604;2024-03-23T20:19:34;15.20;;;8.75;;
76094;SDS011;64821;13.710;100.604;2024-03-23T20:20:36;12.95;;;8.18;;
76094;SDS011;64821;13.710;100.604;2024-03-23T20:21:38;13.30;;;8.07;;
76094;SDS011;64821;13.710;100.604;2024-03-23T20:22:41;13.00;;;8.27;;
76094;SDS011;64821;13.710;100.604;2024-03-23T20:23:43;12.80;;;8.23;;
76094;SDS011;64821;13.710;100.604;2024-03-23T20:24:46;14.32;;;8.85;;
76094;SDS011;64821;13.710;100.604;2024-03-23T20:25:51;12.85;;;8.38;;
76094;SDS011;64821;13.710;100.604;2024-03-23T20:26:53;13.73;;;8.75;;
76094;SDS011;64821;13.710;100.604;2024-03-23T20:27:56;12.17;;;8.47;;
76094;SDS011;64821;13.710;100.604;2024-03-23T20:28:59;15.32;;;8.77;;
76094;SDS011;64821;13.710;100.604;2024-03-23T20:30:01;13.88;;;8.80;;
76094;SDS011;64821;13.710;100.604;2024-03-23T20:31:05;14.52;;;9.52;;
76094;SDS011;64821;13.710;100.604;2024-03-23T20:32:07;14.85;;;8.48;;
76094;SDS011;64821;13.710;100.604;2024-03-23T20:33:11;12.97;;;8.60;;
76094;SDS011;64821;13.710;100.604;2024-03-23T20:34:14;13.65;;;9.10;;
76094;SDS011;64821;13.710;100.604;2024-03-23T20:35:16;13.55;;;9.45;;
76094;SDS011;64821;13.710;100.604;2024-03-23T20:36:19;13.70;;;8.93;;
76094;SDS011;64821;13.710;100.604;2024-03-23T20:37:22;13.05;;;8.95;;
76094;SDS011;64821;13.710;100.604;2024-03-23T20:38:24;12.87;;;8.67;;
76094;SDS011;64821;13.710;100.604;2024-03-23T20:39:27;13.30;;;8.60;;
76094;SDS011;64821;13.710;100.604;2024-03-23T20:40:29;12.13;;;7.82;;
76094;SDS011;64821;13.710;100.604;2024-03-23T20:41:32;13.35;;;8.57;;
76094;SDS011;64821;13.710;100.604;2024-03-23T20:42:34;12.13;;;8.10;;
76094;SDS011;64821;13.710;100.604;2024-03-23T20:43:37;13.23;;;9.13;;
76094;SDS011;64821;13.710;100.604;2024-03-23T20:44:39;12.77;;;8.98;;
76094;SDS011;64821;13.710;100.604;2024-03-23T20:45:42;15.18;;;8.75;;
76094;SDS011;64821;13.710;100.604;2024-03-23T20:46:44;14.73;;;7.88;;
76094;SDS011;64821;13.710;100.604;2024-03-23T20:47:47;13.40;;;8.75;;
76094;SDS011;64821;13.710;100.604;2024-03-23T20:48:51;12.90;;;8.50;;
76094;SDS011;64821;13.710;100.604;2024-03-23T20:49:53;13.23;;;8.60;;
76094;SDS011;64821;13.710;100.604;2024-03-23T20:50:56;12.73;;;8.18;;
76094;SDS011;64821;13.710;100.604;2024-03-23T20:51:58;12.07;;;8.55;;
76094;SDS011;64821;13.710;100.604;2024-03-23T20:53:01;14.05;;;9.60;;
76094;SDS011;64821;13.710;100.604;2024-03-23T20:54:04;14.13;;;9.10;;
76094;SDS011;64821;13.710;100.604;2024-03-23T20:55:08;14.02;;;9.43;;
76094;SDS011;64821;13.710;100.604;2024-03-23T20:56:10;14.63;;;8.70;;
76094;SDS011;64821;13.710;100.604;2024-03-23T20:57:13;15.05;;;10.05;;
76094;SDS011;64821;13.710;100.604;2024-03-23T20:58:15;14.63;;;9.70;;
76094;SDS011;64821;13.710;100.604;2024-03-23T20:59:18;14.13;;;9.80;;
76094;SDS011;64821;13.710;100.604;2024-03-23T21:00:20;18.02;;;9.77;;
76094;SDS011;64821;13.710;100.604;2024-03-23T21:01:23;15.23;;;9.35;;
76094;SDS011;64821;13.710;100.604;2024-03-23T21:02:25;14.35;;;8.85;;
76094;SDS011;64821;13.710;100.604;2024-03-23T21:03:27;13.85;;;9.10;;
76094;SDS011;64821;13.710;100.604;2024-03-23T21:04:32;16.53;;;9.40;;
76094;SDS011;64821;13.710;100.604;2024-03-23T21:05:34;14.85;;;9.38;;
76094;SDS011;64821;13.710;100.604;2024-03-23T21:06:36;13.88;;;9.35;;
76094;SDS011;64821;13.710;100.604;2024-03-23T21:07:39;13.95;;;9.05;;
76094;SDS011;64821;13.710;100.604;2024-03-23T21:08:42;12.43;;;8.90;;
76094;SDS011;64821;13.710;100.604;2024-03-23T21:09:44;15.07;;;9.43;;
76094;SDS011;64821;13.710;100.604;2024-03-23T21:10:50;13.50;;;9.10;;
76094;SDS011;64821;13.710;100.604;2024-03-23T21:11:52;14.43;;;9.25;;
76094;SDS011;64821;13.710;100.604;2024-03-23T21:12:55;14.48;;;9.18;;
76094;SDS011;64821;13.710;100.604;2024-03-23T21:13:58;12.50;;;8.90;;
76094;SDS011;64821;13.710;100.604;2024-03-23T21:15:00;14.17;;;9.90;;
76094;SDS011;64821;13.710;100.604;2024-03-23T21:16:03;15.35;;;9.40;;
76094;SDS011;64821;13.710;100.604;2024-03-23T21:17:05;14.10;;;8.98;;
76094;SDS011;64821;13.710;100.604;2024-03-23T21:18:08;14.32;;;9.25;;
76094;SDS011;64821;13.710;100.604;2024-03-23T21:19:10;12.98;;;8.85;;
76094;SDS011;64821;13.710;100.604;2024-03-23T21:20:15;13.07;;;8.60;;
76094;SDS011;64821;13.710;100.604;2024-03-23T21:21:17;15.32;;;9.48;;
76094;SDS011;64821;13.710;100.604;2024-03-23T21:22:20;15.02;;;9.98;;
76094;SDS011;64821;13.710;100.604;2024-03-23T21:23:22;14.50;;;8.38;;
76094;SDS011;64821;13.710;100.604;2024-03-23T21:24:25;13.48;;;9.27;;
76094;SDS011;64821;13.710;100.604;2024-03-23T21:25:28;14.60;;;9.17;;
76094;SDS011;64821;13.710;100.604;2024-03-23T21:26:30;15.00;;;9.05;;
76094;SDS011;64821;13.710;100.604;2024-03-23T21:27:32;13.50;;;8.70;;
76094;SDS011;64821;13.710;100.604;2024-03-23T21:28:35;13.70;;;9.25;;
76094;SDS011;64821;13.710;100.604;2024-03-23T21:29:37;13.02;;;8.50;;
76094;SDS011;64821;13.710;100.604;2024-03-23T21:30:40;12.37;;;8.63;;
76094;SDS011;64821;13.710;100.604;2024-03-23T21:31:42;12.43;;;8.50;;
76094;SDS011;64821;13.710;100.604;2024-03-23T21:32:45;12.65;;;9.38;;
76094;SDS011;64821;13.710;100.604;2024-03-23T21:33:47;13.80;;;8.77;;
76094;SDS011;64821;13.710;100.604;2024-03-23T21:34:50;15.00;;;8.65;;
76094;SDS011;64821;13.710;100.604;2024-03-23T21:35:57;13.70;;;8.83;;
76094;SDS011;64821;13.710;100.604;2024-03-23T21:36:59;13.40;;;8.95;;
76094;SDS011;64821;13.710;100.604;2024-03-23T21:38:02;15.15;;;10.30;;
76094;SDS011;64821;13.710;100.604;2024-03-23T21:39:05;13.57;;;9.10;;
76094;SDS011;64821;13.710;100.604;2024-03-23T21:40:08;14.25;;;9.30;;
76094;SDS011;64821;13.710;100.604;2024-03-23T21:41:11;13.27;;;9.23;;
76094;SDS011;64821;13.710;100.604;2024-03-23T21:42:13;17.55;;;10.00;;
76094;SDS011;64821;13.710;100.604;2024-03-23T21:43:16;15.25;;;9.20;;
76094;SDS011;64821;13.710;100.604;2024-03-23T21:44:18;13.20;;;9.02;;
76094;SDS011;64821;13.710;100.604;2024-03-23T21:45:20;15.13;;;9.60;;
76094;SDS011;64821;13.710;100.604;2024-03-23T21:46:23;14.93;;;9.87;;
76094;SDS011;64821;13.710;100.604;2024-03-23T21:47:26;15.35;;;9.80;;
76094;SDS011;64821;13.710;100.604;2024-03-23T21:48:28;14.40;;;9.60;;
76094;SDS011;64821;13.710;100.604;2024-03-23T21:49:31;13.38;;;9.20;;
76094;SDS011;64821;13.710;100.604;2024-03-23T21:50:33;14.32;;;9.45;;
76094;SDS011;64821;13.710;100.604;2024-03-23T21:51:37;14.30;;;9.67;;
76094;SDS011;64821;13.710;100.604;2024-03-23T21:52:40;13.98;;;9.38;;
76094;SDS011;64821;13.710;100.604;2024-03-23T21:53:43;15.32;;;9.80;;
76094;SDS011;64821;13.710;100.604;2024-03-23T21:54:45;14.02;;;9.32;;
76094;SDS011;64821;13.710;100.604;2024-03-23T21:55:49;13.50;;;9.32;;
76094;SDS011;64821;13.710;100.604;2024-03-23T21:56:52;13.77;;;9.23;;
76094;SDS011;64821;13.710;100.604;2024-03-23T21:57:54;14.65;;;9.45;;
76094;SDS011;64821;13.710;100.604;2024-03-23T21:58:57;14.30;;;9.40;;
76094;SDS011;64821;13.710;100.604;2024-03-23T22:00:00;15.05;;;9.80;;
76094;SDS011;64821;13.710;100.604;2024-03-23T22:01:03;14.45;;;9.52;;
76094;SDS011;64821;13.710;100.604;2024-03-23T22:02:06;15.77;;;10.10;;
76094;SDS011;64821;13.710;100.604;2024-03-23T22:03:09;13.45;;;9.52;;
76094;SDS011;64821;13.710;100.604;2024-03-23T22:04:11;16.23;;;10.48;;
76094;SDS011;64821;13.710;100.604;2024-03-23T22:05:14;14.93;;;10.45;;
76094;SDS011;64821;13.710;100.604;2024-03-23T22:06:16;13.32;;;9.70;;
76094;SDS011;64821;13.710;100.604;2024-03-23T22:07:20;16.53;;;9.80;;
76094;SDS011;64821;13.710;100.604;2024-03-23T22:08:23;16.00;;;10.32;;
76094;SDS011;64821;13.710;100.604;2024-03-23T22:09:26;15.63;;;9.98;;
76094;SDS011;64821;13.710;100.604;2024-03-23T22:10:30;15.60;;;9.63;;
76094;SDS011;64821;13.710;100.604;2024-03-23T22:11:33;15.55;;;10.13;;
76094;SDS011;64821;13.710;100.604;2024-03-23T22:12:35;13.33;;;9.47;;
76094;SDS011;64821;13.710;100.604;2024-03-23T22:13:38;15.88;;;9.70;;
76094;SDS011;64821;13.710;100.604;2024-03-23T22:14:41;16.10;;;10.02;;
76094;SDS011;64821;13.710;100.604;2024-03-23T22:15:43;15.82;;;9.55;;
76094;SDS011;64821;13.710;100.604;2024-03-23T22:16:46;14.55;;;10.40;;
76094;SDS011;64821;13.710;100.604;2024-03-23T22:17:49;16.40;;;10.80;;
76094;SDS011;64821;13.710;100.604;2024-03-23T22:18:51;14.93;;;10.20;;
76094;SDS011;64821;13.710;100.604;2024-03-23T22:19:54;13.88;;;9.95;;
76094;SDS011;64821;13.710;100.604;2024-03-23T22:20:57;16.00;;;10.15;;
76094;SDS011;64821;13.710;100.604;2024-03-23T22:21:59;14.55;;;9.60;;
76094;SDS011;64821;13.710;100.604;2024-03-23T22:23:04;14.03;;;10.20;;
76094;SDS011;64821;13.710;100.604;2024-03-23T22:24:06;15.40;;;10.10;;
76094;SDS011;64821;13.710;100.604;2024-03-23T22:25:09;15.32;;;10.70;;
76094;SDS011;64821;13.710;100.604;2024-03-23T22:26:11;15.38;;;9.73;;
76094;SDS011;64821;13.710;100.604;2024-03-23T22:27:14;14.90;;;10.30;;
76094;SDS011;64821;13.710;100.604;2024-03-23T22:28:16;18.60;;;10.67;;
76094;SDS011;64821;13.710;100.604;2024-03-23T22:29:19;15.35;;;10.85;;
76094;SDS011;64821;13.710;100.604;2024-03-23T22:30:21;16.10;;;10.27;;
76094;SDS011;64821;13.710;100.604;2024-03-23T22:31:24;13.73;;;10.00;;
76094;SDS011;64821;13.710;100.604;2024-03-23T22:32:26;14.23;;;10.25;;
76094;SDS011;64821;13.710;100.604;2024-03-23T22:33:29;15.63;;;10.07;;
76094;SDS011;64821;13.710;100.604;2024-03-23T22:34:32;16.63;;;10.48;;
76094;SDS011;64821;13.710;100.604;2024-03-23T22:35:34;15.63;;;10.02;;
76094;SDS011;64821;13.710;100.604;2024-03-23T22:36:37;14.13;;;10.55;;
76094;SDS011;64821;13.710;100.604;2024-03-23T22:37:40;15.65;;;9.68;;
76094;SDS011;64821;13.710;100.604;2024-03-23T22:38:44;15.27;;;9.27;;
76094;SDS011;64821;13.710;100.604;2024-03-23T22:39:46;14.68;;;10.10;;
76094;SDS011;64821;13.710;100.604;2024-03-23T22:40:55;14.68;;;9.88;;
76094;SDS011;64821;13.710;100.604;2024-03-23T22:41:58;13.90;;;9.70;;
76094;SDS011;64821;13.710;100.604;2024-03-23T22:43:00;16.15;;;9.93;;
76094;SDS011;64821;13.710;100.604;2024-03-23T22:44:03;14.70;;;10.17;;
76094;SDS011;64821;13.710;100.604;2024-03-23T22:45:06;14.50;;;10.50;;
76094;SDS011;64821;13.710;100.604;2024-03-23T22:46:09;15.90;;;10.50;;
76094;SDS011;64821;13.710;100.604;2024-03-23T22:47:11;15.85;;;11.05;;
76094;SDS011;64821;13.710;100.604;2024-03-23T22:48:14;16.15;;;10.63;;
76094;SDS011;64821;13.710;100.604;2024-03-23T22:49:16;14.33;;;9.30;;
76094;SDS011;64821;13.710;100.604;2024-03-23T22:50:19;15.82;;;10.00;;
76094;SDS011;64821;13.710;100.604;2024-03-23T22:51:21;15.77;;;9.55;;
76094;SDS011;64821;13.710;100.604;2024-03-23T22:52:24;13.07;;;9.15;;
76094;SDS011;64821;13.710;100.604;2024-03-23T22:53:26;14.25;;;10.48;;
76094;SDS011;64821;13.710;100.604;2024-03-23T22:54:31;14.70;;;10.33;;
76094;SDS011;64821;13.710;100.604;2024-03-23T22:55:34;16.35;;;9.82;;
76094;SDS011;64821;13.710;100.604;2024-03-23T22:56:36;13.45;;;9.45;;
76094;SDS011;64821;13.710;100.604;2024-03-23T22:57:39;14.27;;;10.18;;
76094;SDS011;64821;13.710;100.604;2024-03-23T22:58:41;14.35;;;9.85;;
76094;SDS011;64821;13.710;100.604;2024-03-23T22:59:44;14.47;;;9.10;;
76094;SDS011;64821;13.710;100.604;2024-03-23T23:00:47;12.65;;;9.35;;
76094;SDS011;64821;13.710;100.604;2024-03-23T23:01:50;14.13;;;9.82;;
76094;SDS011;64821;13.710;100.604;2024-03-23T23:02:52;13.85;;;10.60;;
76094;SDS011;64821;13.710;100.604;2024-03-23T23:03:55;13.63;;;9.68;;
76094;SDS011;64821;13.710;100.604;2024-03-23T23:04:57;15.43;;;9.87;;
76094;SDS011;64821;13.710;100.604;2024-03-23T23:06:00;13.82;;;9.95;;
76094;SDS011;64821;13.710;100.604;2024-03-23T23:07:04;14.02;;;9.90;;
76094;SDS011;64821;13.710;100.604;2024-03-23T23:08:06;14.02;;;10.23;;
76094;SDS011;64821;13.710;100.604;2024-03-23T23:09:09;14.95;;;9.02;;
76094;SDS011;64821;13.710;100.604;2024-03-23T23:10:13;14.33;;;9.60;;
76094;SDS011;64821;13.710;100.604;2024-03-23T23:11:19;15.63;;;10.10;;
76094;SDS011;64821;13.710;100.604;2024-03-23T23:12:21;14.70;;;9.48;;
76094;SDS011;64821;13.710;100.604;2024-03-23T23:13:23;14.88;;;9.77;;
76094;SDS011;64821;13.710;100.604;2024-03-23T23:14:26;14.35;;;10.25;;
76094;SDS011;64821;13.710;100.604;2024-03-23T23:15:29;14.83;;;10.20;;
76094;SDS011;64821;13.710;100.604;2024-03-23T23:16:31;13.55;;;9.43;;
76094;SDS011;64821;13.710;100.604;2024-03-23T23:17:34;14.77;;;9.75;;
76094;SDS011;64821;13.710;100.604;2024-03-23T23:18:36;16.13;;;9.73;;
76094;SDS011;64821;13.710;100.604;2024-03-23T23:19:39;18.23;;;10.38;;
76094;SDS011;64821;13.710;100.604;2024-03-23T23:20:41;14.23;;;9.73;;
76094;SDS011;64821;13.710;100.604;2024-03-23T23:21:44;14.32;;;10.15;;
76094;SDS011;64821;13.710;100.604;2024-03-23T23:22:48;15.55;;;9.82;;
76094;SDS011;64821;13.710;100.604;2024-03-23T23:23:51;15.23;;;10.20;;
76094;SDS011;64821;13.710;100.604;2024-03-23T23:24:53;15.52;;;10.35;;
76094;SDS011;64821;13.710;100.604;2024-03-23T23:25:58;14.83;;;9.70;;
76094;SDS011;64821;13.710;100.604;2024-03-23T23:27:01;14.75;;;9.68;;
76094;SDS011;64821;13.710;100.604;2024-03-23T23:28:03;15.02;;;10.32;;
76094;SDS011;64821;13.710;100.604;2024-03-23T23:29:06;15.27;;;10.10;;
76094;SDS011;64821;13.710;100.604;2024-03-23T23:30:09;14.38;;;10.75;;
76094;SDS011;64821;13.710;100.604;2024-03-23T23:31:12;16.43;;;10.20;;
76094;SDS011;64821;13.710;100.604;2024-03-23T23:32:14;15.88;;;10.55;;
76094;SDS011;64821;13.710;100.604;2024-03-23T23:33:17;16.77;;;10.93;;
76094;SDS011;64821;13.710;100.604;2024-03-23T23:34:19;12.80;;;9.45;;